Hlavní strana
METAR-TAF:

METAR-TAF

Letiště :

Memmingen, Německo

zeměpisná šířka: 47-59-33N, zeměpisná délka: 10-14-37E, výška: 633 m

Aktuální stav počasí

Zpráva byla vytvořena před 6 hodinami a 41 minutami, v 22:20 UTC
Severní vítr 4 kt
Teplota -2°C
Vlhkost vzduchu 100%
Tlak 1021 hPa
Viditelnost: 3800 m
Polojasno ve výšce 500 ft
Oblačno až skoro zataženo ve výšce 2400 ft
slabé sněžení

METAR: EDJA 172220Z 36004KT 3800 -SN SCT005 BKN024 M02/M02 Q1021

Čas: 06:01 (05:01 UTC)

Předpověď počasí

Zpráva byla vytvořena před 12 hodinami a 1 minutami, v 17:00 UTC
Předpověď platná od 17 v 18 UTC do 18 v 03 UTC
Východoseverovýchodní vítr 5 kt
Viditelnost: 3000 m
Oblačno až skoro zataženo ve výšce 600 ft
slabé sněžení
Dočasný
od 17 v 18 UTC do 18 v 03 UTC
Viditelnost: 0800 m
Oblačno až skoro zataženo ve výšce 400 ft
sníh

TAF: EDJA 171700Z 1718/1803 07005KT 3000 -SN BKN006 TEMPO 1718/1803 0800 SN BKN004

Stav a předpovědi počasí z více než 4 000 letišť (zprávy METAR a TAF).

Červené a žluté tečky na mapě představují dostupné meteorologické stanice.

Když kurzor umístíte na tečku, zobrazí se název stanice.

Pak kliknutím zobrazíte stav a předpověď počasí.

Chcete-li změnit mapu, kliknutím na zelené tlačítko se znaménkem +mapu přiblížíte, kliknutím na zelené tlačítko se znaménkem – mapu oddálíte a kliknutím na zelené šipky přejdete na sousední mapy.


METAR-TAF: